Time,TemperatureF,DewpointF,PressureIn,WindDirection,WindDirectionDegrees,WindSpeedMPH,WindSpeedGustMPH,Humidity,HourlyPrecipIn,Conditions,Clouds,dailyrainin,SolarRadiationWatts/m^2,SoftwareType,DateUTC
2013-02-09 00:00:00,29.5,26.0,30.12,North,5,18.0,-999.0,85,-99.99,,,0.00,0,weatherlink.com 1.10,2013-02-09 05:00:00,
2013-02-09 00:15:00,29.3,25.0,30.12,NNE,25,7.0,-999.0,85,-99.99,,,0.00,0,weatherlink.com 1.10,2013-02-09 05:15:00,
2013-02-09 00:30:00,29.0,25.0,30.11,NNW,344,13.0,-999.0,85,-99.99,,,0.00,0,weatherlink.com 1.10,2013-02-09 05:30:00,
2013-02-09 00:45:00,28.8,25.0,30.11,North,351,4.0,-999.0,85,-99.99,,,0.00,0,weatherlink.com 1.10,2013-02-09 05:45:00,
2013-02-09 01:00:00,28.6,25.0,30.09,North,360,14.0,-999.0,85,-99.99,,,0.00,0,weatherlink.com 1.10,2013-02-09 06:00:00,
2013-02-09 01:15:00,28.5,25.0,30.11,NNW,348,3.0,-999.0,85,-99.99,,,0.00,0,weatherlink.com 1.10,2013-02-09 06:15:00,
2013-02-09 01:30:00,28.5,24.0,30.12,North,360,5.0,-999.0,84,-99.99,,,0.00,0,weatherlink.com 1.10,2013-02-09 06:30:00,
2013-02-09 01:45:00,28.5,24.0,30.12,NNW,340,15.0,-999.0,84,-99.99,,,0.00,0,weatherlink.com 1.10,2013-02-09 06:45:00,
2013-02-09 02:00:00,28.5,24.0,30.13,NNE,13,13.0,-999.0,83,-99.99,,,0.00,0,weatherlink.com 1.10,2013-02-09 07:00:00,
2013-02-09 02:15:00,28.5,24.0,30.13,North,355,2.0,-999.0,82,-99.99,,,0.00,0,weatherlink.com 1.10,2013-02-09 07:15:00,
2013-02-09 02:30:00,28.4,24.0,30.14,North,360,3.0,-999.0,82,-99.99,,,0.00,0,weatherlink.com 1.10,2013-02-09 07:30:00,
2013-02-09 02:45:00,28.4,23.0,30.14,North,360,5.0,-999.0,81,-99.99,,,0.00,0,weatherlink.com 1.10,2013-02-09 07:45:00,
2013-02-09 03:00:00,28.1,23.0,30.14,North,355,14.0,-999.0,82,-99.99,,,0.00,0,weatherlink.com 1.10,2013-02-09 08:00:00,
2013-02-09 03:15:00,28.1,23.0,30.15,North,350,16.0,-999.0,81,-99.99,,,0.00,0,weatherlink.com 1.10,2013-02-09 08:15:00,
2013-02-09 03:30:00,28.0,23.0,30.15,NNE,13,4.0,-999.0,81,-99.99,,,0.00,0,weatherlink.com 1.10,2013-02-09 08:30:00,
2013-02-09 03:45:00,27.9,23.0,30.15,North,9,19.0,-999.0,81,-99.99,,,0.00,0,weatherlink.com 1.10,2013-02-09 08:45:00,
2013-02-09 04:00:00,28.0,23.0,30.13,NNE,24,16.0,-999.0,80,-99.99,,,0.00,0,weatherlink.com 1.10,2013-02-09 09:00:00,
2013-02-09 04:15:00,27.8,23.0,30.13,NNE,28,16.0,-999.0,81,-99.99,,,0.00,0,weatherlink.com 1.10,2013-02-09 09:15:00,
2013-02-09 04:30:00,27.6,23.0,30.15,NNE,12,17.0,-999.0,82,-99.99,,,0.00,0,weatherlink.com 1.10,2013-02-09 09:30:00,
2013-02-09 04:45:00,27.6,23.0,30.15,NNE,15,21.0,-999.0,81,-99.99,,,0.00,0,weatherlink.com 1.10,2013-02-09 09:45:00,
2013-02-09 05:00:00,27.8,22.0,30.16,NNE,17,17.0,-999.0,79,-99.99,,,0.00,0,weatherlink.com 1.10,2013-02-09 10:00:00,
2013-02-09 05:15:00,28.0,22.0,30.16,NE,34,18.0,-999.0,77,-99.99,,,0.00,0,weatherlink.com 1.10,2013-02-09 10:15:00,
2013-02-09 05:30:00,28.1,22.0,30.18,North,360,28.0,-999.0,77,-99.99,,,0.00,0,weatherlink.com 1.10,2013-02-09 10:30:00,
2013-02-09 05:45:00,27.8,21.0,30.19,NNE,21,19.0,-999.0,77,-99.99,,,0.00,0,weatherlink.com 1.10,2013-02-09 10:45:00,
2013-02-09 06:00:00,27.5,22.0,30.19,NE,40,27.0,-999.0,78,-99.99,,,0.00,0,weatherlink.com 1.10,2013-02-09 11:00:00,
2013-02-09 06:15:00,27.6,21.0,30.19,North,5,18.0,-999.0,77,-99.99,,,0.00,0,weatherlink.com 1.10,2013-02-09 11:15:00,
2013-02-09 06:30:00,28.0,20.0,30.21,NE,35,18.0,-999.0,73,-99.99,,,0.00,0,weatherlink.com 1.10,2013-02-09 11:30:00,
2013-02-09 06:45:00,28.3,20.0,30.21,North,11,21.0,-999.0,70,-99.99,,,0.00,0,weatherlink.com 1.10,2013-02-09 11:45:00,
2013-02-09 07:00:00,28.5,19.0,30.22,NNE,13,22.0,-999.0,68,-99.99,,,0.00,0,weatherlink.com 1.10,2013-02-09 12:00:00,
2013-02-09 07:15:00,28.7,19.0,30.23,North,355,18.0,-999.0,67,-99.99,,,0.00,0,weatherlink.com 1.10,2013-02-09 12:15:00,
2013-02-09 07:30:00,28.6,19.0,30.25,NNW,343,14.0,-999.0,68,-99.99,,,0.00,18,weatherlink.com 1.10,2013-02-09 12:30:00,
2013-02-09 07:45:00,29.4,19.0,30.25,North,360,18.0,-999.0,65,-99.99,,,0.00,56,weatherlink.com 1.10,2013-02-09 12:45:00,
2013-02-09 08:00:00,30.7,19.0,30.26,NNE,17,16.0,-999.0,61,-99.99,,,0.00,98,weatherlink.com 1.10,2013-02-09 13:00:00,
2013-02-09 08:15:00,31.4,19.0,30.26,NNE,15,19.0,-999.0,60,-99.99,,,0.00,149,weatherlink.com 1.10,2013-02-09 13:15:00,
2013-02-09 08:30:00,32.6,19.0,30.27,NNE,23,14.0,-999.0,58,-99.99,,,0.00,193,weatherlink.com 1.10,2013-02-09 13:30:00,
2013-02-09 08:45:00,33.5,19.0,30.28,North,5,16.0,-999.0,55,-99.99,,,0.00,239,weatherlink.com 1.10,2013-02-09 13:45:00,
2013-02-09 09:00:00,34.3,19.0,30.28,North,350,6.0,-999.0,54,-99.99,,,0.00,279,weatherlink.com 1.10,2013-02-09 14:00:00,
2013-02-09 09:15:00,35.6,18.0,30.29,NNE,19,12.0,-999.0,50,-99.99,,,0.00,322,weatherlink.com 1.10,2013-02-09 14:15:00,
2013-02-09 09:30:00,36.8,19.0,30.30,NNW,331,11.0,-999.0,48,-99.99,,,0.00,364,weatherlink.com 1.10,2013-02-09 14:30:00,
2013-02-09 09:45:00,38.9,19.0,30.30,NNE,28,9.0,-999.0,44,-99.99,,,0.00,403,weatherlink.com 1.10,2013-02-09 14:45:00,
2013-02-09 10:00:00,40.0,17.0,30.31,NE,49,6.0,-999.0,39,-99.99,,,0.00,441,weatherlink.com 1.10,2013-02-09 15:00:00,
2013-02-09 10:15:00,40.9,18.0,30.31,NNE,25,9.0,-999.0,40,-99.99,,,0.00,473,weatherlink.com 1.10,2013-02-09 15:15:00,
2013-02-09 10:30:00,42.0,16.0,30.31,NNE,28,6.0,-999.0,35,-99.99,,,0.00,506,weatherlink.com 1.10,2013-02-09 15:30:00,
2013-02-09 10:45:00,43.4,17.0,30.32,NNE,33,4.0,-999.0,35,-99.99,,,0.00,536,weatherlink.com 1.10,2013-02-09 15:45:00,
2013-02-09 11:00:00,44.6,16.0,30.32,North,9,5.0,-999.0,31,-99.99,,,0.00,559,weatherlink.com 1.10,2013-02-09 16:00:00,
2013-02-09 11:15:00,46.3,15.0,30.31,NNW,346,3.0,-999.0,28,-99.99,,,0.00,582,weatherlink.com 1.10,2013-02-09 16:15:00,
2013-02-09 11:30:00,47.9,18.0,30.32,NNE,22,4.0,-999.0,30,-99.99,,,0.00,601,weatherlink.com 1.10,2013-02-09 16:30:00,
2013-02-09 11:45:00,49.4,17.0,30.31,NNE,16,10.0,-999.0,27,-99.99,,,0.00,619,weatherlink.com 1.10,2013-02-09 16:45:00,
2013-02-09 12:00:00,50.5,17.0,30.31,NNW,337,10.0,-999.0,26,-99.99,,,0.00,628,weatherlink.com 1.10,2013-02-09 17:00:00,
2013-02-09 12:15:00,52.0,15.0,30.31,North,360,4.0,-999.0,23,-99.99,,,0.00,635,weatherlink.com 1.10,2013-02-09 17:15:00,
2013-02-09 12:30:00,54.2,17.0,30.30,WNW,300,2.0,-999.0,23,-99.99,,,0.00,642,weatherlink.com 1.10,2013-02-09 17:30:00,
2013-02-09 12:45:00,56.2,17.0,30.29,NW,309,2.0,-999.0,21,-99.99,,,0.00,640,weatherlink.com 1.10,2013-02-09 17:45:00,
2013-02-09 13:00:00,58.0,16.0,30.28,WNW,301,3.0,-999.0,19,-99.99,,,0.00,640,weatherlink.com 1.10,2013-02-09 18:00:00,
2013-02-09 13:15:00,59.0,14.0,30.27,NW,304,4.0,-999.0,17,-99.99,,,0.00,633,weatherlink.com 1.10,2013-02-09 18:15:00,
2013-02-09 13:30:00,59.0,14.0,30.27,WNW,298,4.0,-999.0,17,-99.99,,,0.00,622,weatherlink.com 1.10,2013-02-09 18:30:00,
2013-02-09 13:45:00,59.7,13.0,30.27,NW,317,2.0,-999.0,16,-99.99,,,0.00,606,weatherlink.com 1.10,2013-02-09 18:45:00,
2013-02-09 14:00:00,59.0,19.0,30.26,ESE,120,8.0,-999.0,21,-99.99,,,0.00,584,weatherlink.com 1.10,2013-02-09 19:00:00,
2013-02-09 14:15:00,52.3,18.0,30.29,SSE,150,8.0,-999.0,26,-99.99,,,0.00,561,weatherlink.com 1.10,2013-02-09 19:15:00,
2013-02-09 14:30:00,52.7,20.0,30.28,SSE,157,4.0,-999.0,28,-99.99,,,0.00,534,weatherlink.com 1.10,2013-02-09 19:30:00,
2013-02-09 14:45:00,52.1,20.0,30.28,SSE,160,5.0,-999.0,28,-99.99,,,0.00,506,weatherlink.com 1.10,2013-02-09 19:45:00,
2013-02-09 15:00:00,52.2,20.0,30.27,SSE,153,4.0,-999.0,28,-99.99,,,0.00,476,weatherlink.com 1.10,2013-02-09 20:00:00,
2013-02-09 15:15:00,51.8,21.0,30.27,SSE,149,4.0,-999.0,30,-99.99,,,0.00,443,weatherlink.com 1.10,2013-02-09 20:15:00,
2013-02-09 15:30:00,51.5,22.0,30.26,SE,145,12.0,-999.0,31,-99.99,,,0.00,410,weatherlink.com 1.10,2013-02-09 20:30:00,
2013-02-09 15:45:00,51.0,22.0,30.28,SE,129,3.0,-999.0,32,-99.99,,,0.00,373,weatherlink.com 1.10,2013-02-09 20:45:00,
2013-02-09 16:00:00,51.6,22.0,30.27,SE,142,2.0,-999.0,31,-99.99,,,0.00,336,weatherlink.com 1.10,2013-02-09 21:00:00,
2013-02-09 16:15:00,50.9,23.0,30.28,SE,144,7.0,-999.0,33,-99.99,,,0.00,288,weatherlink.com 1.10,2013-02-09 21:15:00,
2013-02-09 16:30:00,50.7,21.0,30.28,SE,142,2.0,-999.0,31,-99.99,,,0.00,220,weatherlink.com 1.10,2013-02-09 21:30:00,
2013-02-09 16:45:00,50.6,21.0,30.28,SE,141,4.0,-999.0,31,-99.99,,,0.00,206,weatherlink.com 1.10,2013-02-09 21:45:00,
2013-02-09 17:00:00,50.6,22.0,30.28,SSE,148,3.0,-999.0,32,-99.99,,,0.00,162,weatherlink.com 1.10,2013-02-09 22:00:00,
2013-02-09 17:15:00,50.0,22.0,30.28,SE,144,5.0,-999.0,33,-99.99,,,0.00,37,weatherlink.com 1.10,2013-02-09 22:15:00,
2013-02-09 17:30:00,49.2,22.0,30.29,SE,145,6.0,-999.0,34,-99.99,,,0.00,49,weatherlink.com 1.10,2013-02-09 22:30:00,
2013-02-09 17:45:00,48.7,21.0,30.29,SE,146,3.0,-999.0,34,-99.99,,,0.00,42,weatherlink.com 1.10,2013-02-09 22:45:00,
2013-02-09 18:00:00,48.3,22.0,30.29,SE,146,6.0,-999.0,35,-99.99,,,0.00,9,weatherlink.com 1.10,2013-02-09 23:00:00,
2013-02-09 18:15:00,48.1,21.0,30.30,SSE,147,5.0,-999.0,35,-99.99,,,0.00,0,weatherlink.com 1.10,2013-02-09 23:15:00,
2013-02-09 18:30:00,47.6,22.0,30.31,SSE,147,6.0,-999.0,36,-99.99,,,0.00,0,weatherlink.com 1.10,2013-02-09 23:30:00,
2013-02-09 18:45:00,47.3,21.0,30.31,SSE,147,7.0,-999.0,36,-99.99,,,0.00,0,weatherlink.com 1.10,2013-02-09 23:45:00,
2013-02-09 19:00:00,47.2,21.0,30.31,SE,146,8.0,-999.0,36,-99.99,,,0.00,0,weatherlink.com 1.10,2013-02-10 00:00:00,
2013-02-09 19:16:00,47.0,22.0,30.31,SE,146,6.0,-999.0,37,-99.99,,,0.00,0,weatherlink.com 1.10,2013-02-10 00:16:00,
2013-02-09 19:31:00,46.6,21.0,30.31,SE,145,9.0,-999.0,37,-99.99,,,0.00,0,weatherlink.com 1.10,2013-02-10 00:31:00,
2013-02-09 19:45:00,46.3,21.0,30.32,SE,139,11.0,-999.0,37,-99.99,,,0.00,0,weatherlink.com 1.10,2013-02-10 00:45:00,
2013-02-09 20:01:00,46.3,21.0,30.32,SSE,148,8.0,-999.0,37,-99.99,,,0.00,0,weatherlink.com 1.10,2013-02-10 01:01:00,
2013-02-09 20:15:00,46.2,20.0,30.33,SSE,148,7.0,-999.0,36,-99.99,,,0.00,0,weatherlink.com 1.10,2013-02-10 01:15:00,
2013-02-09 20:31:00,45.9,21.0,30.32,SSE,150,4.0,-999.0,38,-99.99,,,0.00,0,weatherlink.com 1.10,2013-02-10 01:31:00,
2013-02-09 20:46:00,45.5,21.0,30.32,SSE,153,7.0,-999.0,38,-99.99,,,0.00,0,weatherlink.com 1.10,2013-02-10 01:46:00,
2013-02-09 21:00:00,45.4,22.0,30.33,SSE,154,4.0,-999.0,40,-99.99,,,0.00,0,weatherlink.com 1.10,2013-02-10 02:00:00,
2013-02-09 21:15:00,45.5,23.0,30.33,SSE,155,3.0,-999.0,42,-99.99,,,0.00,0,weatherlink.com 1.10,2013-02-10 02:15:00,
2013-02-09 21:30:00,45.4,23.0,30.31,SSE,155,4.0,-999.0,42,-99.99,,,0.00,0,weatherlink.com 1.10,2013-02-10 02:30:00,
2013-02-09 21:45:00,45.5,25.0,30.32,SSE,157,9.0,-999.0,45,-99.99,,,0.00,0,weatherlink.com 1.10,2013-02-10 02:45:00,
2013-02-09 22:01:00,45.7,25.0,30.31,SSE,153,6.0,-999.0,45,-99.99,,,0.00,0,weatherlink.com 1.10,2013-02-10 03:01:00,
2013-02-09 22:15:00,45.7,26.0,30.31,SSE,157,5.0,-999.0,46,-99.99,,,0.00,0,weatherlink.com 1.10,2013-02-10 03:15:00,
2013-02-09 22:30:00,45.0,24.0,30.29,SSE,157,9.0,-999.0,43,-99.99,,,0.00,0,weatherlink.com 1.10,2013-02-10 03:30:00,
2013-02-09 22:45:00,44.4,22.0,30.30,SSE,157,6.0,-999.0,42,-99.99,,,0.00,0,weatherlink.com 1.10,2013-02-10 03:45:00,
2013-02-09 23:01:00,44.2,20.0,30.30,SE,146,12.0,-999.0,39,-99.99,,,0.00,0,weatherlink.com 1.10,2013-02-10 04:01:00,
2013-02-09 23:15:00,44.4,19.0,30.30,SE,144,10.0,-999.0,37,-99.99,,,0.00,0,weatherlink.com 1.10,2013-02-10 04:15:00,
2013-02-09 23:31:00,44.5,19.0,30.29,SE,142,12.0,-999.0,36,-99.99,,,0.00,0,weatherlink.com 1.10,2013-02-10 04:31:00,
2013-02-09 23:46:00,44.0,19.0,30.30,SE,142,10.0,-999.0,37,-99.99,,,0.00,0,weatherlink.com 1.10,2013-02-10 04:46:00,